sensor_id;sensor_type;location;lat;lon;timestamp;pressure;altitude;pressure_sealevel;temperature;humidity
31337;BME280;22846;42.654;23.314;2023-04-01T00:00:04;93622.75;;;24.28;48.36
31337;BME280;22846;42.654;23.314;2023-04-01T00:02:29;93624.72;;;24.27;48.78
31337;BME280;22846;42.654;23.314;2023-04-01T00:04:55;93629.72;;;24.29;48.73
31337;BME280;22846;42.654;23.314;2023-04-01T00:07:20;93630.19;;;24.27;48.38
31337;BME280;22846;42.654;23.314;2023-04-01T00:09:46;93620.50;;;24.17;48.31
31337;BME280;22846;42.654;23.314;2023-04-01T00:12:11;93628.22;;;24.28;48.71
31337;BME280;22846;42.654;23.314;2023-04-01T00:14:37;93634.44;;;24.28;48.31
31337;BME280;22846;42.654;23.314;2023-04-01T00:17:02;93635.63;;;24.27;48.69
31337;BME280;22846;42.654;23.314;2023-04-01T00:19:28;93629.88;;;24.25;48.47
31337;BME280;22846;42.654;23.314;2023-04-01T00:21:53;93635.06;;;24.23;48.58
31337;BME280;22846;42.654;23.314;2023-04-01T00:24:19;93641.56;;;24.26;48.59
31337;BME280;22846;42.654;23.314;2023-04-01T00:26:44;93649.75;;;24.26;48.47
31337;BME280;22846;42.654;23.314;2023-04-01T00:29:10;93644.75;;;24.24;48.56
31337;BME280;22846;42.654;23.314;2023-04-01T00:31:35;93612.34;;;24.08;48.37
31337;BME280;22846;42.654;23.314;2023-04-01T00:34:01;93650.50;;;24.26;48.46
31337;BME280;22846;42.654;23.314;2023-04-01T00:36:26;93640.78;;;24.25;48.59
31337;BME280;22846;42.654;23.314;2023-04-01T00:38:51;93637.31;;;24.25;48.67
31337;BME280;22846;42.654;23.314;2023-04-01T00:41:19;93631.88;;;24.25;48.33
31337;BME280;22846;42.654;23.314;2023-04-01T00:43:48;93623.66;;;24.25;48.69
31337;BME280;22846;42.654;23.314;2023-04-01T00:46:14;93611.22;;;24.24;48.25
31337;BME280;22846;42.654;23.314;2023-04-01T00:48:52;93593.38;;;24.14;48.44
31337;BME280;22846;42.654;23.314;2023-04-01T00:51:25;93622.16;;;24.24;48.27
31337;BME280;22846;42.654;23.314;2023-04-01T00:53:53;93622.91;;;24.24;48.42
31337;BME280;22846;42.654;23.314;2023-04-01T00:56:41;93616.69;;;24.24;48.31
31337;BME280;22846;42.654;23.314;2023-04-01T00:59:11;93609.72;;;24.23;48.16
31337;BME280;22846;42.654;23.314;2023-04-01T01:01:39;93581.41;;;24.11;48.46
31337;BME280;22846;42.654;23.314;2023-04-01T01:04:05;93596.06;;;24.23;48.41
31337;BME280;22846;42.654;23.314;2023-04-01T01:06:35;93584.41;;;24.22;48.23
31337;BME280;22846;42.654;23.314;2023-04-01T01:09:12;93582.25;;;24.26;48.33
31337;BME280;22846;42.654;23.314;2023-04-01T01:17:23;93549.56;;;24.08;48.32
31337;BME280;22846;42.654;23.314;2023-04-01T01:20:04;93566.94;;;24.20;48.53
31337;BME280;22846;42.654;23.314;2023-04-01T01:25:29;93553.31;;;24.20;48.52
31337;BME280;22846;42.654;23.314;2023-04-01T01:31:11;93549.09;;;24.19;48.60
31337;BME280;22846;42.654;23.314;2023-04-01T01:36:40;93552.56;;;24.19;48.06
31337;BME280;22846;42.654;23.314;2023-04-01T01:39:08;93535.44;;;24.19;48.26
31337;BME280;22846;42.654;23.314;2023-04-01T01:41:35;93529.84;;;24.13;48.37
31337;BME280;22846;42.654;23.314;2023-04-01T01:44:05;93556.50;;;24.18;48.39
31337;BME280;22846;42.654;23.314;2023-04-01T01:46:32;93543.03;;;24.15;48.27
31337;BME280;22846;42.654;23.314;2023-04-01T01:48:59;93546.34;;;24.19;48.47
31337;BME280;22846;42.654;23.314;2023-04-01T01:51:26;93548.31;;;24.18;48.27
31337;BME280;22846;42.654;23.314;2023-04-01T01:53:52;93536.19;;;24.19;48.63
31337;BME280;22846;42.654;23.314;2023-04-01T01:56:18;93533.44;;;24.19;48.50
31337;BME280;22846;42.654;23.314;2023-04-01T01:58:50;93522.53;;;24.19;48.45
31337;BME280;22846;42.654;23.314;2023-04-01T02:01:24;93528.00;;;24.19;48.52
31337;BME280;22846;42.654;23.314;2023-04-01T02:03:51;93525.44;;;24.16;48.45
31337;BME280;22846;42.654;23.314;2023-04-01T02:06:19;93520.28;;;24.18;48.43
31337;BME280;22846;42.654;23.314;2023-04-01T02:08:56;93525.72;;;24.18;48.31
31337;BME280;22846;42.654;23.314;2023-04-01T02:11:49;93508.28;;;24.15;48.10
31337;BME280;22846;42.654;23.314;2023-04-01T02:14:19;93514.03;;;24.17;48.27
31337;BME280;22846;42.654;23.314;2023-04-01T02:16:54;93500.38;;;24.17;48.60
31337;BME280;22846;42.654;23.314;2023-04-01T02:19:26;93517.25;;;24.16;48.49
31337;BME280;22846;42.654;23.314;2023-04-01T02:21:56;93508.59;;;24.17;48.37
31337;BME280;22846;42.654;23.314;2023-04-01T02:24:24;93497.34;;;24.15;48.36
31337;BME280;22846;42.654;23.314;2023-04-01T02:26:52;93507.84;;;24.17;48.35
31337;BME280;22846;42.654;23.314;2023-04-01T02:29:22;93506.31;;;24.16;48.50
31337;BME280;22846;42.654;23.314;2023-04-01T02:31:49;93510.56;;;24.17;48.51
31337;BME280;22846;42.654;23.314;2023-04-01T02:34:15;93511.78;;;24.16;48.63
31337;BME280;22846;42.654;23.314;2023-04-01T02:36:41;93518.75;;;24.17;48.40
31337;BME280;22846;42.654;23.314;2023-04-01T02:39:08;93519.97;;;24.16;48.17
31337;BME280;22846;42.654;23.314;2023-04-01T02:41:44;93509.78;;;24.16;48.31
31337;BME280;22846;42.654;23.314;2023-04-01T02:44:12;93516.03;;;24.17;48.31
31337;BME280;22846;42.654;23.314;2023-04-01T02:46:38;93514.22;;;24.14;48.46
31337;BME280;22846;42.654;23.314;2023-04-01T02:49:05;93507.84;;;24.17;48.33
31337;BME280;22846;42.654;23.314;2023-04-01T02:51:31;93502.56;;;24.13;48.25
31337;BME280;22846;42.654;23.314;2023-04-01T02:53:56;93525.44;;;24.16;48.57
31337;BME280;22846;42.654;23.314;2023-04-01T02:56:22;93536.03;;;24.14;48.29
31337;BME280;22846;42.654;23.314;2023-04-01T02:58:47;93525.59;;;24.12;48.33
31337;BME280;22846;42.654;23.314;2023-04-01T03:01:13;93544.53;;;24.16;48.52
31337;BME280;22846;42.654;23.314;2023-04-01T03:03:39;93550.75;;;24.16;48.15
31337;BME280;22846;42.654;23.314;2023-04-01T03:06:09;93543.03;;;24.15;48.14
31337;BME280;22846;42.654;23.314;2023-04-01T03:08:35;93550.75;;;24.16;48.54
31337;BME280;22846;42.654;23.314;2023-04-01T03:11:01;93547.25;;;24.16;48.56
31337;BME280;22846;42.654;23.314;2023-04-01T03:13:27;93551.94;;;24.15;48.38
31337;BME280;22846;42.654;23.314;2023-04-01T03:15:52;93546.22;;;24.13;48.23
31337;BME280;22846;42.654;23.314;2023-04-01T03:18:18;93540.75;;;24.13;48.39
31337;BME280;22846;42.654;23.314;2023-04-01T03:20:44;93561.38;;;24.14;48.23
31337;BME280;22846;42.654;23.314;2023-04-01T03:23:09;93528.16;;;24.16;48.42
31337;BME280;22846;42.654;23.314;2023-04-01T03:25:35;93549.22;;;24.15;48.15
31337;BME280;22846;42.654;23.314;2023-04-01T03:28:00;93566.84;;;24.14;48.41
31337;BME280;22846;42.654;23.314;2023-04-01T03:30:26;93568.06;;;24.13;48.18
31337;BME280;22846;42.654;23.314;2023-04-01T03:32:52;93554.69;;;24.15;48.49
31337;BME280;22846;42.654;23.314;2023-04-01T03:35:18;93549.38;;;24.12;48.23
31337;BME280;22846;42.654;23.314;2023-04-01T03:37:43;93544.69;;;24.12;48.13
31337;BME280;22846;42.654;23.314;2023-04-01T03:40:09;93547.72;;;24.14;48.10
31337;BME280;22846;42.654;23.314;2023-04-01T03:42:35;93525.75;;;24.09;48.54
31337;BME280;22846;42.654;23.314;2023-04-01T03:45:01;93521.34;;;24.11;48.10
31337;BME280;22846;42.654;23.314;2023-04-01T03:47:26;93503.47;;;24.10;48.58
31337;BME280;22846;42.654;23.314;2023-04-01T03:49:52;93494.81;;;24.12;48.04
31337;BME280;22846;42.654;23.314;2023-04-01T03:52:17;93488.59;;;24.11;48.10
31337;BME280;22846;42.654;23.314;2023-04-01T03:54:42;93462.56;;;24.01;48.08
31337;BME280;22846;42.654;23.314;2023-04-01T03:57:08;93468.28;;;24.12;48.45
31337;BME280;22846;42.654;23.314;2023-04-01T03:59:34;93447.53;;;24.06;48.39
31337;BME280;22846;42.654;23.314;2023-04-01T04:01:59;93455.53;;;24.09;48.49
31337;BME280;22846;42.654;23.314;2023-04-01T04:04:25;93454.34;;;24.10;48.35
31337;BME280;22846;42.654;23.314;2023-04-01T04:06:51;93434.19;;;24.08;48.50
31337;BME280;22846;42.654;23.314;2023-04-01T04:09:17;93444.16;;;24.11;48.26
31337;BME280;22846;42.654;23.314;2023-04-01T04:11:42;93419.19;;;24.03;48.20
31337;BME280;22846;42.654;23.314;2023-04-01T04:14:07;93427.50;;;24.09;48.45
31337;BME280;22846;42.654;23.314;2023-04-01T04:16:35;93415.56;;;24.06;48.34
31337;BME280;22846;42.654;23.314;2023-04-01T04:19:02;93419.78;;;24.07;47.96
31337;BME280;22846;42.654;23.314;2023-04-01T04:21:27;93416.59;;;24.09;48.47
31337;BME280;22846;42.654;23.314;2023-04-01T04:23:53;93417.34;;;24.09;48.08
31337;BME280;22846;42.654;23.314;2023-04-01T04:26:18;93405.94;;;24.11;48.47
31337;BME280;22846;42.654;23.314;2023-04-01T04:28:44;93400.66;;;24.07;48.49
31337;BME280;22846;42.654;23.314;2023-04-01T04:31:09;93402.94;;;24.09;48.08
31337;BME280;22846;42.654;23.314;2023-04-01T04:33:35;93407.94;;;24.10;48.04
31337;BME280;22846;42.654;23.314;2023-04-01T04:36:02;93395.03;;;24.11;47.99
31337;BME280;22846;42.654;23.314;2023-04-01T04:38:28;93394.00;;;24.08;48.43
31337;BME280;22846;42.654;23.314;2023-04-01T04:40:53;93398.72;;;24.08;48.49
31337;BME280;22846;42.654;23.314;2023-04-01T04:43:19;93390.53;;;24.08;47.97
31337;BME280;22846;42.654;23.314;2023-04-01T04:45:45;93388.84;;;24.10;48.36
31337;BME280;22846;42.654;23.314;2023-04-01T04:48:12;93368.22;;;24.09;48.36
31337;BME280;22846;42.654;23.314;2023-04-01T04:50:41;93373.66;;;24.09;48.27
31337;BME280;22846;42.654;23.314;2023-04-01T04:53:10;93370.81;;;24.04;48.04
31337;BME280;22846;42.654;23.314;2023-04-01T04:55:35;93389.31;;;24.09;48.12
31337;BME280;22846;42.654;23.314;2023-04-01T04:58:00;93381.84;;;24.09;48.09
31337;BME280;22846;42.654;23.314;2023-04-01T05:00:26;93379.59;;;24.08;48.14
31337;BME280;22846;42.654;23.314;2023-04-01T05:02:52;93359.47;;;24.05;48.03
31337;BME280;22846;42.654;23.314;2023-04-01T05:05:17;93369.44;;;24.08;48.09
31337;BME280;22846;42.654;23.314;2023-04-01T05:07:42;93358.50;;;24.08;48.40
31337;BME280;22846;42.654;23.314;2023-04-01T05:10:08;93370.94;;;24.09;48.02
31337;BME280;22846;42.654;23.314;2023-04-01T05:12:34;93366.44;;;24.06;48.27
31337;BME280;22846;42.654;23.314;2023-04-01T05:15:06;93350.31;;;24.08;48.44
31337;BME280;22846;42.654;23.314;2023-04-01T05:17:32;93333.16;;;23.93;48.19
31337;BME280;22846;42.654;23.314;2023-04-01T05:19:58;93354.56;;;24.09;48.37
31337;BME280;22846;42.654;23.314;2023-04-01T05:22:23;93337.44;;;24.09;47.96
31337;BME280;22846;42.654;23.314;2023-04-01T05:24:49;93332.16;;;24.05;48.09
31337;BME280;22846;42.654;23.314;2023-04-01T05:27:15;93336.97;;;24.10;48.24
31337;BME280;22846;42.654;23.314;2023-04-01T05:29:40;93330.97;;;24.06;48.03
31337;BME280;22846;42.654;23.314;2023-04-01T05:32:06;93329.16;;;24.03;48.41
31337;BME280;22846;42.654;23.314;2023-04-01T05:34:31;93337.63;;;24.05;48.51
31337;BME280;22846;42.654;23.314;2023-04-01T05:36:56;93334.25;;;24.10;48.13
31337;BME280;22846;42.654;23.314;2023-04-01T05:39:22;93320.78;;;24.07;48.35
31337;BME280;22846;42.654;23.314;2023-04-01T05:41:48;93313.50;;;24.04;48.26
31337;BME280;22846;42.654;23.314;2023-04-01T05:44:14;93326.81;;;24.11;48.32
31337;BME280;22846;42.654;23.314;2023-04-01T05:46:39;93337.09;;;24.16;48.29
31337;BME280;22846;42.654;23.314;2023-04-01T05:49:04;93343.59;;;24.18;48.38
31337;BME280;22846;42.654;23.314;2023-04-01T05:51:30;93340.38;;;24.20;48.35
31337;BME280;22846;42.654;23.314;2023-04-01T05:53:55;93329.94;;;24.18;48.04
31337;BME280;22846;42.654;23.314;2023-04-01T05:56:21;93318.09;;;24.21;47.40
31337;BME280;22846;42.654;23.314;2023-04-01T05:58:52;93324.28;;;24.22;47.44
31337;BME280;22846;42.654;23.314;2023-04-01T06:01:18;93326.09;;;24.25;48.44
31337;BME280;22846;42.654;23.314;2023-04-01T06:03:44;93304.56;;;24.27;47.98
31337;BME280;22846;42.654;23.314;2023-04-01T06:06:28;93317.00;;;24.28;47.92
31337;BME280;22846;42.654;23.314;2023-04-01T06:08:56;93320.75;;;24.30;47.43
31337;BME280;22846;42.654;23.314;2023-04-01T06:14:29;93308.88;;;24.33;48.33
31337;BME280;22846;42.654;23.314;2023-04-01T06:19:39;93318.13;;;24.36;48.83
31337;BME280;22846;42.654;23.314;2023-04-01T06:45:48;93264.09;;;24.40;48.76
31337;BME280;22846;42.654;23.314;2023-04-01T06:54:32;93288.50;;;24.43;49.06
31337;BME280;22846;42.654;23.314;2023-04-01T06:57:51;93264.69;;;24.44;49.01
31337;BME280;22846;42.654;23.314;2023-04-01T06:59:50;93251.31;;;24.46;48.83
31337;BME280;22846;42.654;23.314;2023-04-01T07:02:25;93256.03;;;24.45;48.64
31337;BME280;22846;42.654;23.314;2023-04-01T07:04:57;93253.94;;;24.40;48.45
31337;BME280;22846;42.654;23.314;2023-04-01T07:07:35;93278.59;;;24.46;48.70
31337;BME280;22846;42.654;23.314;2023-04-01T07:10:10;93284.06;;;24.46;48.55
31337;BME280;22846;42.654;23.314;2023-04-01T07:12:37;93263.00;;;24.46;48.69
31337;BME280;22846;42.654;23.314;2023-04-01T07:15:25;93266.94;;;24.45;48.71
31337;BME280;22846;42.654;23.314;2023-04-01T07:18:01;93245.09;;;24.45;48.66
31337;BME280;22846;42.654;23.314;2023-04-01T07:20:30;93244.03;;;24.43;48.70
31337;BME280;22846;42.654;23.314;2023-04-01T07:23:02;93264.69;;;24.44;48.55
31337;BME280;22846;42.654;23.314;2023-04-01T07:25:37;93281.06;;;24.44;48.31
31337;BME280;22846;42.654;23.314;2023-04-01T07:28:11;93276.81;;;24.43;48.45
31337;BME280;22846;42.654;23.314;2023-04-01T07:30:57;93290.47;;;24.43;48.61
31337;BME280;22846;42.654;23.314;2023-04-01T07:33:39;93268.31;;;24.41;48.64
31337;BME280;22846;42.654;23.314;2023-04-01T07:36:14;93271.25;;;24.37;48.87
31337;BME280;22846;42.654;23.314;2023-04-01T08:00:11;93262.34;;;24.13;40.41
31337;BME280;22846;42.654;23.314;2023-04-01T08:03:00;93261.78;;;24.09;41.71
31337;BME280;22846;42.654;23.314;2023-04-01T08:17:04;93238.91;;;24.07;44.37
31337;BME280;22846;42.654;23.314;2023-04-01T08:19:43;93222.63;;;23.98;37.02
31337;BME280;22846;42.654;23.314;2023-04-01T08:22:36;93203.59;;;23.89;42.84
31337;BME280;22846;42.654;23.314;2023-04-01T08:25:05;93221.00;;;23.92;42.48
31337;BME280;22846;42.654;23.314;2023-04-01T08:27:41;93199.66;;;23.90;41.25
31337;BME280;22846;42.654;23.314;2023-04-01T08:30:20;93196.16;;;23.90;42.97
31337;BME280;22846;42.654;23.314;2023-04-01T08:33:02;93166.50;;;23.83;44.24
31337;BME280;22846;42.654;23.314;2023-04-01T08:35:50;93172.91;;;23.94;44.30
31337;BME280;22846;42.654;23.314;2023-04-01T08:38:38;93145.19;;;23.95;44.36
31337;BME280;22846;42.654;23.314;2023-04-01T08:54:30;93128.53;;;24.22;43.88
31337;BME280;22846;42.654;23.314;2023-04-01T09:02:51;93138.97;;;24.38;38.76
31337;BME280;22846;42.654;23.314;2023-04-01T09:06:04;93138.31;;;24.43;40.08
31337;BME280;22846;42.654;23.314;2023-04-01T09:21:44;93125.53;;;23.16;39.38
31337;BME280;22846;42.654;23.314;2023-04-01T09:24:26;93129.34;;;23.33;41.20
31337;BME280;22846;42.654;23.314;2023-04-01T09:27:28;93114.97;;;23.47;37.77
31337;BME280;22846;42.654;23.314;2023-04-01T09:35:50;93094.50;;;23.66;36.78
31337;BME280;22846;42.654;23.314;2023-04-01T09:46:11;93084.59;;;23.92;43.69
31337;BME280;22846;42.654;23.314;2023-04-01T09:51:53;93064.16;;;24.01;44.65
31337;BME280;22846;42.654;23.314;2023-04-01T09:54:45;93051.34;;;24.07;44.90
31337;BME280;22846;42.654;23.314;2023-04-01T10:54:43;92973.66;;;24.37;42.77
31337;BME280;22846;42.654;23.314;2023-04-01T11:30:19;93018.47;;;23.82;35.66
31337;BME280;22846;42.654;23.314;2023-04-01T11:33:26;93016.88;;;23.76;35.95
31337;BME280;22846;42.654;23.314;2023-04-01T11:36:17;93029.34;;;23.68;37.85
31337;BME280;22846;42.654;23.314;2023-04-01T11:41:45;93068.53;;;23.41;37.74
31337;BME280;22846;42.654;23.314;2023-04-01T11:44:18;93123.69;;;23.36;41.89
31337;BME280;22846;42.654;23.314;2023-04-01T11:52:24;93202.69;;;23.45;49.20
31337;BME280;22846;42.654;23.314;2023-04-01T11:55:19;93222.81;;;23.48;49.76
31337;BME280;22846;42.654;23.314;2023-04-01T11:58:06;93230.38;;;23.53;50.82
31337;BME280;22846;42.654;23.314;2023-04-01T12:14:07;93221.47;;;23.67;48.99
31337;BME280;22846;42.654;23.314;2023-04-01T12:19:59;93208.88;;;23.69;50.23
31337;BME280;22846;42.654;23.314;2023-04-01T12:28:18;93197.56;;;23.62;46.72
31337;BME280;22846;42.654;23.314;2023-04-01T12:34:15;93195.88;;;23.64;49.77
31337;BME280;22846;42.654;23.314;2023-04-01T12:50:00;93215.97;;;23.52;42.62
31337;BME280;22846;42.654;23.314;2023-04-01T12:55:37;93214.06;;;23.20;49.28
31337;BME280;22846;42.654;23.314;2023-04-01T12:58:22;93210.84;;;23.22;50.82
31337;BME280;22846;42.654;23.314;2023-04-01T13:06:29;93193.53;;;23.34;50.94
31337;BME280;22846;42.654;23.314;2023-04-01T13:11:44;93180.63;;;23.34;49.58
31337;BME280;22846;42.654;23.314;2023-04-01T13:17:28;93120.59;;;23.43;50.92
31337;BME280;22846;42.654;23.314;2023-04-01T13:20:14;93121.75;;;23.51;49.75
31337;BME280;22846;42.654;23.314;2023-04-01T13:23:09;93139.25;;;23.59;49.63
31337;BME280;22846;42.654;23.314;2023-04-01T13:33:33;93136.06;;;23.84;47.54
31337;BME280;22846;42.654;23.314;2023-04-01T13:37:15;93112.63;;;23.92;48.58
31337;BME280;22846;42.654;23.314;2023-04-01T13:42:19;93101.81;;;23.97;48.47
31337;BME280;22846;42.654;23.314;2023-04-01T13:50:26;93081.09;;;24.05;48.94
31337;BME280;22846;42.654;23.314;2023-04-01T14:11:45;93038.47;;;24.08;48.75
31337;BME280;22846;42.654;23.314;2023-04-01T14:31:18;93004.19;;;24.21;48.26
31337;BME280;22846;42.654;23.314;2023-04-01T14:34:15;93019.44;;;24.28;47.86
31337;BME280;22846;42.654;23.314;2023-04-01T14:40:14;93002.38;;;24.33;48.63
31337;BME280;22846;42.654;23.314;2023-04-01T14:48:31;93021.94;;;24.46;49.09
31337;BME280;22846;42.654;23.314;2023-04-01T14:51:15;93019.97;;;24.46;48.51
31337;BME280;22846;42.654;23.314;2023-04-01T14:53:58;93022.97;;;24.48;49.31
31337;BME280;22846;42.654;23.314;2023-04-01T14:56:41;93017.13;;;24.55;50.05
31337;BME280;22846;42.654;23.314;2023-04-01T14:59:30;93031.06;;;24.57;49.19
31337;BME280;22846;42.654;23.314;2023-04-01T15:02:00;93026.13;;;24.61;50.63
31337;BME280;22846;42.654;23.314;2023-04-01T15:04:50;93026.13;;;24.61;50.22
31337;BME280;22846;42.654;23.314;2023-04-01T15:24:24;93044.97;;;24.59;50.22
31337;BME280;22846;42.654;23.314;2023-04-01T15:29:40;93050.16;;;24.57;49.22
31337;BME280;22846;42.654;23.314;2023-04-01T15:42:54;93049.16;;;24.40;49.13
31337;BME280;22846;42.654;23.314;2023-04-01T15:45:39;93058.56;;;24.39;48.92
31337;BME280;22846;42.654;23.314;2023-04-01T15:50:46;93187.81;;;24.36;49.35
31337;BME280;22846;42.654;23.314;2023-04-01T15:53:29;93205.91;;;24.34;47.58
31337;BME280;22846;42.654;23.314;2023-04-01T15:56:11;93259.19;;;24.29;49.30
31337;BME280;22846;42.654;23.314;2023-04-01T16:01:37;93263.44;;;24.30;48.37
31337;BME280;22846;42.654;23.314;2023-04-01T16:10:10;93319.72;;;24.28;50.38
31337;BME280;22846;42.654;23.314;2023-04-01T16:23:36;93334.59;;;24.27;48.82
31337;BME280;22846;42.654;23.314;2023-04-01T16:34:03;93336.00;;;24.22;48.59
31337;BME280;22846;42.654;23.314;2023-04-01T16:36:40;93342.47;;;24.25;48.82
31337;BME280;22846;42.654;23.314;2023-04-01T16:39:22;93348.69;;;24.25;49.36
31337;BME280;22846;42.654;23.314;2023-04-01T16:44:54;93349.63;;;24.22;48.24
31337;BME280;22846;42.654;23.314;2023-04-01T16:47:30;93345.56;;;24.18;48.99
31337;BME280;22846;42.654;23.314;2023-04-01T16:53:40;93340.84;;;24.18;50.47
31337;BME280;22846;42.654;23.314;2023-04-01T16:56:18;93354.50;;;24.18;51.74
31337;BME280;22846;42.654;23.314;2023-04-01T16:59:02;93357.22;;;24.18;49.20
31337;BME280;22846;42.654;23.314;2023-04-01T17:01:47;93343.13;;;24.20;51.68
31337;BME280;22846;42.654;23.314;2023-04-01T17:17:51;93367.75;;;24.72;51.00
31337;BME280;22846;42.654;23.314;2023-04-01T17:20:32;93376.41;;;24.85;51.39
31337;BME280;22846;42.654;23.314;2023-04-01T17:28:30;93354.97;;;25.07;50.89
31337;BME280;22846;42.654;23.314;2023-04-01T17:31:07;93362.25;;;25.10;50.71
31337;BME280;22846;42.654;23.314;2023-04-01T17:39:15;93369.31;;;25.31;50.07
31337;BME280;22846;42.654;23.314;2023-04-01T17:41:55;93376.84;;;25.36;49.58
31337;BME280;22846;42.654;23.314;2023-04-01T17:45:31;93371.94;;;25.40;49.17
31337;BME280;22846;42.654;23.314;2023-04-01T17:47:31;93379.75;;;25.47;49.38
31337;BME280;22846;42.654;23.314;2023-04-01T17:50:30;93369.84;;;25.49;48.35
31337;BME280;22846;42.654;23.314;2023-04-01T17:56:02;93377.59;;;25.51;48.60
31337;BME280;22846;42.654;23.314;2023-04-01T18:04:15;93405.66;;;25.65;47.67
31337;BME280;22846;42.654;23.314;2023-04-01T18:30:56;93471.91;;;25.69;47.93
31337;BME280;22846;42.654;23.314;2023-04-01T18:33:32;93468.22;;;25.72;47.64
31337;BME280;22846;42.654;23.314;2023-04-01T18:36:21;93462.00;;;25.72;47.15
31337;BME280;22846;42.654;23.314;2023-04-01T18:38:54;93450.28;;;25.71;48.40
31337;BME280;22846;42.654;23.314;2023-04-01T18:44:46;93454.38;;;25.76;48.63
31337;BME280;22846;42.654;23.314;2023-04-01T18:47:23;93455.41;;;25.78;48.91
31337;BME280;22846;42.654;23.314;2023-04-01T18:50:02;93450.78;;;25.84;49.40
31337;BME280;22846;42.654;23.314;2023-04-01T18:57:46;93461.72;;;25.99;50.06
31337;BME280;22846;42.654;23.314;2023-04-01T19:00:26;93463.47;;;26.02;49.60
31337;BME280;22846;42.654;23.314;2023-04-01T19:02:58;93468.50;;;26.03;48.73
31337;BME280;22846;42.654;23.314;2023-04-01T19:05:36;93470.94;;;26.01;48.52
31337;BME280;22846;42.654;23.314;2023-04-01T19:08:17;93466.22;;;26.02;48.31
31337;BME280;22846;42.654;23.314;2023-04-01T19:21:58;93505.50;;;25.99;48.57
31337;BME280;22846;42.654;23.314;2023-04-01T19:32:33;93518.72;;;26.00;48.98
31337;BME280;22846;42.654;23.314;2023-04-01T19:38:35;93528.72;;;26.03;49.12
31337;BME280;22846;42.654;23.314;2023-04-01T19:41:23;93531.47;;;26.03;48.91
31337;BME280;22846;42.654;23.314;2023-04-01T19:44:10;93528.72;;;26.03;48.60
31337;BME280;22846;42.654;23.314;2023-04-01T19:46:44;93533.91;;;26.01;48.23
31337;BME280;22846;42.654;23.314;2023-04-01T19:52:03;93545.34;;;26.00;48.08
31337;BME280;22846;42.654;23.314;2023-04-01T19:57:34;93548.53;;;25.98;48.20
31337;BME280;22846;42.654;23.314;2023-04-01T20:00:04;93550.06;;;25.99;48.20
31337;BME280;22846;42.654;23.314;2023-04-01T20:05:33;93548.53;;;25.98;48.40
31337;BME280;22846;42.654;23.314;2023-04-01T20:11:08;93530.59;;;25.97;48.15
31337;BME280;22846;42.654;23.314;2023-04-01T20:16:14;93530.16;;;25.99;48.49
31337;BME280;22846;42.654;23.314;2023-04-01T20:18:56;93540.91;;;26.02;48.42
31337;BME280;22846;42.654;23.314;2023-04-01T20:21:35;93532.50;;;26.06;48.45
31337;BME280;22846;42.654;23.314;2023-04-01T20:24:21;93529.66;;;26.00;48.34
31337;BME280;22846;42.654;23.314;2023-04-01T20:27:22;93539.09;;;25.99;50.04
31337;BME280;22846;42.654;23.314;2023-04-01T20:39:02;93542.28;;;25.69;50.27
31337;BME280;22846;42.654;23.314;2023-04-01T20:42:02;93550.41;;;25.63;48.95
31337;BME280;22846;42.654;23.314;2023-04-01T20:44:46;93546.34;;;25.59;48.60
31337;BME280;22846;42.654;23.314;2023-04-01T20:56:30;93552.06;;;25.47;52.42
31337;BME280;22846;42.654;23.314;2023-04-01T21:01:44;93543.38;;;25.34;50.92
31337;BME280;22846;42.654;23.314;2023-04-01T21:04:36;93550.94;;;25.39;51.25
31337;BME280;22846;42.654;23.314;2023-04-01T21:12:30;93563.19;;;25.43;53.27
31337;BME280;22846;42.654;23.314;2023-04-01T21:20:33;93555.84;;;25.35;51.24
31337;BME280;22846;42.654;23.314;2023-04-01T21:23:20;93566.78;;;25.35;52.26
31337;BME280;22846;42.654;23.314;2023-04-01T22:00:42;93565.75;;;25.09;48.32
31337;BME280;22846;42.654;23.314;2023-04-01T22:08:51;93579.19;;;24.98;49.37
31337;BME280;22846;42.654;23.314;2023-04-01T22:13:50;93579.81;;;24.93;51.07
31337;BME280;22846;42.654;23.314;2023-04-01T22:19:06;93551.31;;;24.85;50.41
31337;BME280;22846;42.654;23.314;2023-04-01T22:24:25;93557.72;;;24.82;51.14
31337;BME280;22846;42.654;23.314;2023-04-01T22:27:07;93549.41;;;24.77;52.05
31337;BME280;22846;42.654;23.314;2023-04-01T22:30:02;93559.56;;;24.76;52.07
31337;BME280;22846;42.654;23.314;2023-04-01T22:42:56;93573.00;;;24.65;53.16
31337;BME280;22846;42.654;23.314;2023-04-01T22:51:39;93574.41;;;24.61;52.56
31337;BME280;22846;42.654;23.314;2023-04-01T22:54:18;93566.13;;;24.46;52.97
31337;BME280;22846;42.654;23.314;2023-04-01T22:56:56;93590.66;;;24.55;52.73
31337;BME280;22846;42.654;23.314;2023-04-01T22:59:31;93593.38;;;24.55;52.91
31337;BME280;22846;42.654;23.314;2023-04-01T23:02:05;93603.28;;;24.53;52.54
31337;BME280;22846;42.654;23.314;2023-04-01T23:04:37;93595.69;;;24.48;52.65
31337;BME280;22846;42.654;23.314;2023-04-01T23:07:19;93601.44;;;24.50;52.61
31337;BME280;22846;42.654;23.314;2023-04-01T23:09:50;93596.00;;;24.50;52.74
31337;BME280;22846;42.654;23.314;2023-04-01T23:12:19;93586.75;;;24.47;52.76
31337;BME280;22846;42.654;23.314;2023-04-01T23:14:55;93603.13;;;24.47;53.18
31337;BME280;22846;42.654;23.314;2023-04-01T23:17:43;93585.25;;;24.46;53.38
31337;BME280;22846;42.654;23.314;2023-04-01T23:20:21;93597.84;;;24.44;52.67
31337;BME280;22846;42.654;23.314;2023-04-01T23:22:57;93588.09;;;24.43;52.96
31337;BME280;22846;42.654;23.314;2023-04-01T23:34:40;93604.34;;;24.37;52.88
31337;BME280;22846;42.654;23.314;2023-04-01T23:36:53;93604.34;;;24.37;53.20
31337;BME280;22846;42.654;23.314;2023-04-01T23:41:48;93603.31;;;24.35;53.08
31337;BME280;22846;42.654;23.314;2023-04-01T23:44:15;93607.25;;;24.34;52.85